createdAt,value
2019-03-10T00:00:55.145Z,100079.00
2019-03-10T00:03:29.093Z,100075.00
2019-03-10T00:06:02.264Z,100074.00
2019-03-10T00:08:35.103Z,100081.00
2019-03-10T00:11:07.959Z,100086.00
2019-03-10T00:13:40.771Z,100076.00
2019-03-10T00:16:13.657Z,100068.00
2019-03-10T00:18:46.930Z,100065.00
2019-03-10T00:21:19.806Z,100067.00
2019-03-10T00:23:52.627Z,100073.00
2019-03-10T00:26:26.560Z,100075.00
2019-03-10T00:28:59.483Z,100068.00
2019-03-10T00:31:32.488Z,100060.00
2019-03-10T00:34:05.346Z,100058.00
2019-03-10T00:36:38.181Z,100061.00
2019-03-10T00:40:01.084Z,100065.00
2019-03-10T00:43:18.314Z,100050.00
2019-03-10T00:47:02.957Z,100054.00
2019-03-10T00:50:38.906Z,100045.00
2019-03-10T00:53:11.793Z,100048.00
2019-03-10T00:55:44.604Z,100050.00
2019-03-10T00:58:17.466Z,100054.00
2019-03-10T01:00:50.253Z,100045.00
2019-03-10T01:03:23.107Z,100046.00
2019-03-10T01:05:55.958Z,100047.00
2019-03-10T01:08:28.805Z,100044.00
2019-03-10T01:11:02.339Z,100039.00
2019-03-10T01:13:35.183Z,100040.00
2019-03-10T01:16:08.798Z,100040.00
2019-03-10T01:18:43.832Z,100042.00
2019-03-10T01:21:18.339Z,100044.00
2019-03-10T01:23:51.192Z,100045.00
2019-03-10T01:26:24.015Z,100040.00
2019-03-10T01:28:57.819Z,100037.00
2019-03-10T01:32:46.726Z,100036.00
2019-03-10T01:35:28.188Z,100035.00
2019-03-10T01:38:00.990Z,100030.00
2019-03-10T01:40:33.781Z,100008.00
2019-03-10T01:43:06.680Z,100001.00
2019-03-10T01:45:39.528Z,100005.00
2019-03-10T01:48:12.371Z,99990.00
2019-03-10T01:50:45.180Z,99979.00
2019-03-10T01:53:25.272Z,99968.00
2019-03-10T01:55:52.758Z,99954.00
2019-03-10T01:58:25.602Z,99938.00
2019-03-10T02:00:58.409Z,99922.00
2019-03-10T02:03:31.251Z,99928.00
2019-03-10T02:06:04.083Z,99909.00
2019-03-10T02:08:36.906Z,99903.00
2019-03-10T02:11:09.739Z,99896.00
2019-03-10T02:13:42.627Z,99891.00
2019-03-10T02:16:16.549Z,99886.00
2019-03-10T02:18:49.385Z,99885.00
2019-03-10T02:21:22.188Z,99865.00
2019-03-10T02:23:55.007Z,99853.00
2019-03-10T02:26:27.850Z,99855.00
2019-03-10T02:29:00.737Z,99849.00
2019-03-10T02:31:33.565Z,99841.00
2019-03-10T02:34:06.417Z,99834.00
2019-03-10T02:36:39.234Z,99821.00
2019-03-10T02:39:12.082Z,99805.00
2019-03-10T02:41:45.022Z,99791.00
2019-03-10T02:44:17.848Z,99763.00
2019-03-10T02:46:50.663Z,99746.00
2019-03-10T02:49:23.524Z,99749.00
2019-03-10T02:51:56.512Z,99757.00
2019-03-10T02:54:29.290Z,99770.00
2019-03-10T02:57:02.089Z,99775.00
2019-03-10T02:59:34.934Z,99768.00
2019-03-10T03:02:07.706Z,99769.00
2019-03-10T03:04:40.538Z,99766.00
2019-03-10T03:07:13.391Z,99753.00
2019-03-10T03:09:46.222Z,99745.00
2019-03-10T03:12:19.031Z,99749.00
2019-03-10T03:14:51.858Z,99737.00
2019-03-10T03:17:24.669Z,99728.00
2019-03-10T03:19:57.557Z,99734.00
2019-03-10T03:22:30.384Z,99743.00
2019-03-10T03:25:04.524Z,99736.00
2019-03-10T03:27:37.400Z,99741.00
2019-03-10T03:30:13.695Z,99731.00
2019-03-10T03:32:46.505Z,99723.00
2019-03-10T03:36:00.602Z,99716.00
2019-03-10T03:38:40.658Z,99716.00
2019-03-10T03:41:16.068Z,99719.00
2019-03-10T03:43:48.911Z,99702.00
2019-03-10T03:46:21.724Z,99696.00
2019-03-10T03:48:54.585Z,99685.00
2019-03-10T03:51:27.384Z,99684.00
2019-03-10T03:54:00.206Z,99665.00
2019-03-10T03:56:32.985Z,99659.00
2019-03-10T03:59:05.840Z,99644.00
2019-03-10T04:01:42.820Z,99625.00
2019-03-10T04:04:15.647Z,99623.00
2019-03-10T04:06:48.552Z,99612.00
2019-03-10T04:09:21.384Z,99608.00
2019-03-10T04:11:54.163Z,99604.00
2019-03-10T04:14:27.097Z,99602.00
2019-03-10T04:16:59.904Z,99594.00
2019-03-10T04:19:32.752Z,99584.00
2019-03-10T04:22:05.613Z,99580.00
2019-03-10T04:24:38.476Z,99576.00
2019-03-10T04:27:11.275Z,99576.00
2019-03-10T04:29:44.127Z,99572.00
2019-03-10T04:32:17.155Z,99567.00
2019-03-10T04:34:49.976Z,99564.00
2019-03-10T04:37:22.843Z,99560.00
2019-03-10T04:39:55.682Z,99537.00
2019-03-10T04:42:28.502Z,99521.00
2019-03-10T04:45:01.320Z,99530.00
2019-03-10T04:47:34.122Z,99527.00
2019-03-10T04:50:07.426Z,99517.00
2019-03-10T04:52:40.236Z,99504.00
2019-03-10T04:55:27.855Z,99505.00
2019-03-10T04:58:03.133Z,99490.00
2019-03-10T05:00:37.745Z,99493.00
2019-03-10T05:03:10.553Z,99489.00
2019-03-10T05:05:43.389Z,99488.00
2019-03-10T05:08:16.249Z,99478.00
2019-03-10T05:10:49.058Z,99470.00
2019-03-10T05:13:21.920Z,99464.00
2019-03-10T05:15:54.721Z,99460.00
2019-03-10T05:18:27.523Z,99461.00
2019-03-10T05:21:00.404Z,99453.00
2019-03-10T05:23:44.365Z,99451.00
2019-03-10T05:26:17.173Z,99435.00
2019-03-10T05:28:50.020Z,99437.00
2019-03-10T05:31:22.951Z,99426.00
2019-03-10T05:33:55.783Z,99421.00
2019-03-10T05:36:28.631Z,99410.00
2019-03-10T05:39:01.469Z,99414.00
2019-03-10T05:41:36.226Z,99401.00
2019-03-10T05:44:09.092Z,99404.00
2019-03-10T05:46:41.874Z,99384.00
2019-03-10T05:49:14.695Z,99372.00
2019-03-10T05:51:47.535Z,99359.00
2019-03-10T05:54:20.351Z,99352.00
2019-03-10T05:56:53.185Z,99351.00
2019-03-10T05:59:25.988Z,99347.00
2019-03-10T06:01:58.904Z,99341.00
2019-03-10T06:04:31.768Z,99327.00
2019-03-10T06:07:04.601Z,99316.00
2019-03-10T06:09:37.421Z,99306.00
2019-03-10T06:12:10.254Z,99292.00
2019-03-10T06:14:43.094Z,99285.00
2019-03-10T06:17:16.003Z,99284.00
2019-03-10T06:19:48.827Z,99273.00
2019-03-10T06:22:21.694Z,99285.00
2019-03-10T06:24:54.527Z,99273.00
2019-03-10T06:27:27.296Z,99272.00
2019-03-10T06:30:00.339Z,99273.00
2019-03-10T06:32:33.223Z,99267.00
2019-03-10T06:35:06.791Z,99262.00
2019-03-10T06:37:39.617Z,99240.00
2019-03-10T06:40:12.519Z,99240.00
2019-03-10T06:42:45.401Z,99220.00
2019-03-10T06:45:18.210Z,99212.00
2019-03-10T06:47:51.127Z,99206.00
2019-03-10T06:50:23.964Z,99185.00
2019-03-10T06:52:56.822Z,99190.00
2019-03-10T06:55:29.655Z,99180.00
2019-03-10T06:58:03.485Z,99176.00
2019-03-10T07:00:36.357Z,99170.00
2019-03-10T07:03:09.176Z,99173.00
2019-03-10T07:05:42.021Z,99161.00
2019-03-10T07:08:14.864Z,99156.00
2019-03-10T07:10:47.736Z,99149.00
2019-03-10T07:13:20.555Z,99147.00
2019-03-10T07:15:53.517Z,99152.00
2019-03-10T07:18:26.339Z,99139.00
2019-03-10T07:21:00.281Z,99147.00
2019-03-10T07:23:33.102Z,99138.00
2019-03-10T07:26:06.400Z,99139.00
2019-03-10T07:28:53.903Z,99142.00
2019-03-10T07:31:33.699Z,99131.00
2019-03-10T07:34:17.115Z,99139.00
2019-03-10T07:37:06.989Z,99129.00
2019-03-10T07:40:05.051Z,99126.00
2019-03-10T07:43:12.680Z,99119.00
2019-03-10T07:46:07.930Z,99118.00
2019-03-10T07:48:54.171Z,99117.00
2019-03-10T07:51:49.444Z,99117.00
2019-03-10T07:54:42.834Z,99113.00
2019-03-10T07:57:26.184Z,99105.00
2019-03-10T08:00:21.491Z,99101.00
2019-03-10T08:03:12.667Z,99088.00
2019-03-10T08:06:11.208Z,99086.00
2019-03-10T08:09:03.658Z,99082.00
2019-03-10T08:12:07.182Z,99069.00
2019-03-10T08:15:11.717Z,99074.00
2019-03-10T08:17:49.783Z,99068.00
2019-03-10T08:20:30.839Z,99058.00
2019-03-10T08:23:23.293Z,99057.00
2019-03-10T08:26:05.795Z,99054.00
2019-03-10T08:28:58.264Z,99048.00
2019-03-10T08:31:50.747Z,99052.00
2019-03-10T08:34:39.757Z,99043.00
2019-03-10T08:37:44.137Z,99044.00
2019-03-10T08:40:29.440Z,99050.00
2019-03-10T08:43:34.356Z,99039.00
2019-03-10T08:46:17.102Z,99043.00
2019-03-10T08:49:06.492Z,99043.00
2019-03-10T08:52:04.720Z,99029.00
2019-03-10T08:54:58.720Z,99030.00
2019-03-10T08:57:51.160Z,99026.00
2019-03-10T09:00:42.279Z,99030.00
2019-03-10T09:03:30.661Z,99020.00
2019-03-10T09:06:12.866Z,99023.00
2019-03-10T09:09:05.034Z,99004.00
2019-03-10T09:11:48.205Z,99008.00
2019-03-10T09:14:40.668Z,99006.00
2019-03-10T09:17:39.088Z,99001.00
2019-03-10T09:20:30.212Z,98999.00
2019-03-10T09:23:12.696Z,99000.00
2019-03-10T09:26:03.823Z,98985.00
2019-03-10T09:28:56.301Z,98989.00
2019-03-10T09:31:47.439Z,98981.00
2019-03-10T09:34:45.492Z,98977.00
2019-03-10T09:37:27.220Z,98975.00
2019-03-10T09:40:19.689Z,98971.00
2019-03-10T09:43:17.945Z,98969.00
2019-03-10T09:45:59.716Z,98972.00
2019-03-10T09:48:54.971Z,98968.00
2019-03-10T09:51:56.002Z,98950.00
2019-03-10T09:55:00.979Z,98951.00
2019-03-10T09:57:53.129Z,98953.00
2019-03-10T10:00:38.841Z,98950.00
2019-03-10T10:03:34.146Z,98940.00
2019-03-10T10:06:35.644Z,98949.00
2019-03-10T10:09:28.348Z,98947.00
2019-03-10T10:12:20.194Z,98932.00
2019-03-10T10:15:31.054Z,98915.00
2019-03-10T10:18:16.433Z,98913.00
2019-03-10T10:20:56.855Z,98904.00
2019-03-10T10:23:41.162Z,98912.00
2019-03-10T10:26:39.383Z,98885.00
2019-03-10T10:29:34.735Z,98908.00
2019-03-10T10:32:18.621Z,98893.00
2019-03-10T10:35:14.108Z,98896.00
2019-03-10T10:38:03.353Z,98898.00
2019-03-10T10:40:47.308Z,98901.00
2019-03-10T10:43:38.739Z,98906.00
2019-03-10T10:46:20.441Z,98888.00
2019-03-10T10:49:04.480Z,98896.00
2019-03-10T10:51:56.941Z,98887.00
2019-03-10T10:54:52.500Z,98910.00
2019-03-10T10:57:47.460Z,98905.00
2019-03-10T11:00:32.083Z,98902.00
2019-03-10T11:03:27.490Z,98870.00
2019-03-10T11:06:21.308Z,98884.00
2019-03-10T11:09:16.191Z,98899.00
2019-03-10T11:11:55.883Z,98863.00
2019-03-10T11:14:48.413Z,98885.00
2019-03-10T11:18:08.834Z,98881.00
2019-03-10T11:20:57.060Z,98881.00
2019-03-10T11:23:49.026Z,98848.00
2019-03-10T11:26:33.596Z,98856.00
2019-03-10T11:29:22.242Z,98833.00
2019-03-10T11:32:23.734Z,98858.00
2019-03-10T11:35:16.511Z,98842.00
2019-03-10T11:38:07.555Z,98826.00
2019-03-10T11:41:05.718Z,98844.00
2019-03-10T11:44:00.857Z,98826.00
2019-03-10T11:47:08.263Z,98830.00
2019-03-10T11:49:58.033Z,98827.00
2019-03-10T11:52:45.054Z,98826.00
2019-03-10T11:55:46.616Z,98822.00
2019-03-10T11:58:39.538Z,98822.00
2019-03-10T12:01:34.516Z,98810.00
2019-03-10T12:04:29.788Z,98817.00
2019-03-10T12:07:11.872Z,98831.00
2019-03-10T12:09:44.772Z,98807.00
2019-03-10T12:12:17.562Z,98830.00
2019-03-10T12:14:50.490Z,98826.00
2019-03-10T12:17:23.322Z,98803.00
2019-03-10T12:19:56.196Z,98847.00
2019-03-10T12:22:29.168Z,98869.00
2019-03-10T12:25:02.064Z,98875.00
2019-03-10T12:27:34.912Z,98876.00
2019-03-10T12:30:08.884Z,98880.00
2019-03-10T12:32:41.916Z,98863.00
2019-03-10T12:35:14.759Z,98825.00
2019-03-10T12:37:47.577Z,98800.00
2019-03-10T12:40:20.436Z,98826.00
2019-03-10T12:42:54.349Z,98817.00
2019-03-10T12:45:28.310Z,98817.00
2019-03-10T12:48:01.170Z,98808.00
2019-03-10T12:50:34.103Z,98819.00
2019-03-10T12:53:06.938Z,98816.00
2019-03-10T12:55:39.794Z,98810.00
2019-03-10T12:58:12.673Z,98807.00
2019-03-10T13:00:45.555Z,98822.00
2019-03-10T13:03:18.513Z,98825.00
2019-03-10T13:05:51.349Z,98818.00
2019-03-10T13:08:24.257Z,98830.00
2019-03-10T13:10:57.083Z,98836.00
2019-03-10T13:13:29.891Z,98845.00
2019-03-10T13:16:02.836Z,98849.00
2019-03-10T13:18:35.777Z,98835.00
2019-03-10T13:21:09.758Z,98858.00
2019-03-10T13:23:42.751Z,98857.00
2019-03-10T13:26:15.777Z,98861.00
2019-03-10T13:28:48.999Z,98842.00
2019-03-10T13:31:21.946Z,98869.00
2019-03-10T13:33:54.837Z,98863.00
2019-03-10T13:36:29.042Z,98871.00
2019-03-10T13:39:02.058Z,98888.00
2019-03-10T13:41:36.866Z,98902.00
2019-03-10T13:44:09.888Z,98922.00
2019-03-10T13:46:43.888Z,98928.00
2019-03-10T13:49:16.941Z,98931.00
2019-03-10T13:51:49.811Z,98954.00
2019-03-10T13:54:22.712Z,98935.00
2019-03-10T13:56:57.954Z,98984.00
2019-03-10T13:59:30.453Z,98943.00
2019-03-10T14:02:03.423Z,98978.00
2019-03-10T14:04:36.382Z,98948.00
2019-03-10T14:07:11.776Z,99000.00
2019-03-10T14:09:44.759Z,98994.00
2019-03-10T14:12:17.636Z,98978.00
2019-03-10T14:14:50.502Z,98992.00
2019-03-10T14:17:23.404Z,98965.00
2019-03-10T14:19:56.276Z,99022.00
2019-03-10T14:22:30.551Z,99019.00
2019-03-10T14:25:03.618Z,99033.00
2019-03-10T14:27:36.576Z,99051.00
2019-03-10T14:30:10.027Z,99059.00
2019-03-10T14:32:42.921Z,99052.00
2019-03-10T14:35:15.911Z,99062.00
2019-03-10T14:37:50.669Z,99050.00
2019-03-10T14:40:23.557Z,99077.00
2019-03-10T14:42:56.422Z,99072.00
2019-03-10T14:45:29.438Z,99061.00
2019-03-10T14:48:02.582Z,99066.00
2019-03-10T14:50:35.527Z,99091.00
2019-03-10T14:53:08.651Z,99082.00
2019-03-10T14:55:41.549Z,99090.00
2019-03-10T14:58:14.464Z,99085.00
2019-03-10T15:00:47.556Z,99102.00
2019-03-10T15:03:21.561Z,99051.00
2019-03-10T15:05:54.575Z,99098.00
2019-03-10T15:08:27.455Z,99128.00
2019-03-10T15:11:00.367Z,99145.00
2019-03-10T15:13:33.323Z,99126.00
2019-03-10T15:16:06.322Z,99130.00
2019-03-10T15:18:39.234Z,99165.00
2019-03-10T15:21:12.467Z,99159.00
2019-03-10T15:23:45.626Z,99165.00
2019-03-10T15:26:18.781Z,99170.00
2019-03-10T15:28:51.905Z,99189.00
2019-03-10T15:31:24.993Z,99180.00
2019-03-10T15:33:58.108Z,99193.00
2019-03-10T15:36:33.211Z,99163.00
2019-03-10T15:39:10.320Z,99171.00
2019-03-10T15:41:45.864Z,99225.00
2019-03-10T15:44:18.994Z,99219.00
2019-03-10T15:46:52.334Z,99217.00
2019-03-10T15:49:25.610Z,99252.00
2019-03-10T15:51:58.899Z,99239.00
2019-03-10T15:54:31.969Z,99240.00
2019-03-10T15:57:05.074Z,99254.00
2019-03-10T15:59:38.152Z,99247.00
2019-03-10T16:02:11.069Z,99272.00
2019-03-10T16:04:43.971Z,99280.00
2019-03-10T16:07:20.295Z,99291.00
2019-03-10T16:09:52.742Z,99286.00
2019-03-10T16:12:25.689Z,99314.00
2019-03-10T16:14:58.567Z,99322.00
2019-03-10T16:17:31.656Z,99304.00
2019-03-10T16:20:06.396Z,99326.00
2019-03-10T16:22:40.559Z,99338.00
2019-03-10T16:25:13.515Z,99331.00
2019-03-10T16:27:46.553Z,99344.00
2019-03-10T16:30:19.437Z,99333.00
2019-03-10T16:32:52.419Z,99328.00
2019-03-10T16:35:26.349Z,99334.00
2019-03-10T16:37:59.315Z,99357.00
2019-03-10T16:40:34.013Z,99364.00
2019-03-10T16:43:07.185Z,99337.00
2019-03-10T16:45:40.090Z,99390.00
2019-03-10T16:48:14.769Z,99387.00
2019-03-10T16:50:47.580Z,99407.00
2019-03-10T16:53:20.588Z,99360.00
2019-03-10T16:56:02.479Z,99396.00
2019-03-10T16:58:28.371Z,99416.00
2019-03-10T17:01:01.290Z,99423.00
2019-03-10T17:03:34.327Z,99413.00
2019-03-10T17:06:07.299Z,99411.00
2019-03-10T17:08:40.255Z,99428.00
2019-03-10T17:11:13.244Z,99427.00
2019-03-10T17:13:46.240Z,99442.00
2019-03-10T17:16:19.285Z,99434.00
2019-03-10T17:18:52.306Z,99430.00
2019-03-10T17:21:25.285Z,99432.00
2019-03-10T17:23:58.196Z,99422.00
2019-03-10T17:26:31.120Z,99423.00
2019-03-10T17:29:04.361Z,99450.00
2019-03-10T17:31:37.329Z,99468.00
2019-03-10T17:34:10.263Z,99465.00
2019-03-10T17:36:43.227Z,99468.00
2019-03-10T17:39:16.178Z,99480.00
2019-03-10T17:41:49.050Z,99489.00
2019-03-10T17:44:22.043Z,99479.00
2019-03-10T17:46:54.975Z,99525.00
2019-03-10T17:49:27.889Z,99545.00
2019-03-10T17:52:00.855Z,99555.00
2019-03-10T17:54:33.812Z,99572.00
2019-03-10T17:57:06.755Z,99591.00
2019-03-10T17:59:39.756Z,99619.00
2019-03-10T18:02:12.667Z,99653.00
2019-03-10T18:04:45.650Z,99672.00
2019-03-10T18:07:18.570Z,99668.00
2019-03-10T18:09:51.550Z,99686.00
2019-03-10T18:12:24.397Z,99718.00
2019-03-10T18:15:07.910Z,99728.00
2019-03-10T18:17:32.139Z,99758.00
2019-03-10T18:20:08.653Z,99748.00
2019-03-10T18:22:41.880Z,99733.00
2019-03-10T18:25:15.016Z,99759.00
2019-03-10T18:27:47.912Z,99743.00
2019-03-10T18:30:21.138Z,99754.00
2019-03-10T18:32:54.281Z,99747.00
2019-03-10T18:35:27.343Z,99751.00
2019-03-10T18:38:01.628Z,99760.00
2019-03-10T18:40:34.623Z,99765.00
2019-03-10T18:43:08.813Z,99771.00
2019-03-10T18:45:41.744Z,99778.00
2019-03-10T18:48:14.710Z,99786.00
2019-03-10T18:50:47.648Z,99788.00
2019-03-10T18:53:20.749Z,99801.00
2019-03-10T18:55:53.691Z,99804.00
2019-03-10T18:58:26.671Z,99813.00
2019-03-10T19:00:59.963Z,99811.00
2019-03-10T19:03:33.115Z,99826.00
2019-03-10T19:06:06.138Z,99821.00
2019-03-10T19:08:39.188Z,99831.00
2019-03-10T19:11:12.133Z,99840.00
2019-03-10T19:13:45.034Z,99840.00
2019-03-10T19:16:17.930Z,99833.00
2019-03-10T19:18:50.996Z,99854.00
2019-03-10T19:21:23.999Z,99850.00
2019-03-10T19:23:57.026Z,99851.00
2019-03-10T19:26:29.954Z,99865.00
2019-03-10T19:29:03.109Z,99879.00
2019-03-10T19:31:36.121Z,99877.00
2019-03-10T19:34:10.052Z,99870.00
2019-03-10T19:36:43.046Z,99876.00
2019-03-10T19:39:16.369Z,99890.00
2019-03-10T19:41:49.444Z,99896.00
2019-03-10T19:44:22.608Z,99882.00
2019-03-10T19:46:55.645Z,99900.00
2019-03-10T19:49:28.632Z,99924.00
2019-03-10T19:52:01.531Z,99950.00
2019-03-10T19:54:34.473Z,99960.00
2019-03-10T19:57:07.411Z,99975.00
2019-03-10T19:59:40.538Z,99990.00
2019-03-10T20:02:13.556Z,100021.00
2019-03-10T20:04:46.754Z,100037.00
2019-03-10T20:07:19.747Z,100033.00
2019-03-10T20:09:52.722Z,100032.00
2019-03-10T20:12:25.609Z,100019.00
2019-03-10T20:14:59.699Z,100003.00
2019-03-10T20:17:32.802Z,100019.00
2019-03-10T20:20:08.270Z,100017.00
2019-03-10T20:22:41.151Z,100034.00
2019-03-10T20:25:14.415Z,100030.00
2019-03-10T20:27:48.628Z,100040.00
2019-03-10T20:30:22.641Z,100041.00
2019-03-10T20:32:55.527Z,100041.00
2019-03-10T20:35:28.543Z,100037.00
2019-03-10T20:38:01.405Z,100039.00
2019-03-10T20:40:34.633Z,100041.00
2019-03-10T20:43:07.663Z,100040.00
2019-03-10T20:45:40.606Z,100046.00
2019-03-10T20:48:13.611Z,100055.00
2019-03-10T20:50:46.648Z,100063.00
2019-03-10T20:53:19.734Z,100068.00
2019-03-10T20:55:53.788Z,100088.00
2019-03-10T20:58:26.927Z,100086.00
2019-03-10T21:00:59.808Z,100083.00
2019-03-10T21:03:32.869Z,100081.00
2019-03-10T21:06:05.782Z,100085.00
2019-03-10T21:08:38.741Z,100068.00
2019-03-10T21:11:12.552Z,100084.00
2019-03-10T21:13:45.887Z,100089.00
2019-03-10T21:16:18.833Z,100093.00
2019-03-10T21:18:51.759Z,100096.00
2019-03-10T21:21:24.748Z,100094.00
2019-03-10T21:23:57.690Z,100094.00
2019-03-10T21:26:30.631Z,100095.00
2019-03-10T21:29:03.881Z,100085.00
2019-03-10T21:31:37.110Z,100092.00
2019-03-10T21:34:10.210Z,100098.00
2019-03-10T21:36:43.200Z,100111.00
2019-03-10T21:39:16.217Z,100121.00
2019-03-10T21:41:49.120Z,100120.00
2019-03-10T21:44:26.557Z,100113.00
2019-03-10T21:46:56.801Z,100122.00
2019-03-10T21:49:31.480Z,100131.00
2019-03-10T21:52:04.560Z,100130.00
2019-03-10T21:54:37.452Z,100136.00
2019-03-10T21:57:10.420Z,100141.00
2019-03-10T21:59:43.284Z,100142.00
2019-03-10T22:02:17.196Z,100148.00
2019-03-10T22:04:50.048Z,100152.00
2019-03-10T22:07:22.947Z,100156.00
2019-03-10T22:09:55.825Z,100167.00
2019-03-10T22:12:28.682Z,100162.00
2019-03-10T22:15:04.152Z,100145.00
2019-03-10T22:17:39.323Z,100167.00
2019-03-10T22:20:13.377Z,100177.00
2019-03-10T22:22:49.120Z,100177.00
2019-03-10T22:25:21.437Z,100186.00
2019-03-10T22:27:54.312Z,100204.00
2019-03-10T22:30:27.217Z,100217.00
2019-03-10T22:33:00.071Z,100223.00
2019-03-10T22:35:32.918Z,100232.00
2019-03-10T22:38:05.868Z,100224.00
2019-03-10T22:40:38.778Z,100223.00
2019-03-10T22:43:11.625Z,100212.00
2019-03-10T22:45:44.576Z,100203.00
2019-03-10T22:48:17.444Z,100197.00
2019-03-10T22:50:50.404Z,100214.00
2019-03-10T22:53:25.111Z,100214.00
2019-03-10T22:55:58.004Z,100212.00
2019-03-10T22:58:31.461Z,100209.00
2019-03-10T23:01:04.542Z,100205.00
2019-03-10T23:03:37.782Z,100213.00
2019-03-10T23:06:10.666Z,100204.00
2019-03-10T23:08:44.605Z,100205.00
2019-03-10T23:11:17.470Z,100211.00
2019-03-10T23:13:50.306Z,100208.00
2019-03-10T23:16:23.182Z,100207.00
2019-03-10T23:18:56.031Z,100213.00
2019-03-10T23:21:28.897Z,100210.00
2019-03-10T23:24:01.711Z,100209.00
2019-03-10T23:26:34.592Z,100209.00
2019-03-10T23:29:07.439Z,100218.00
2019-03-10T23:31:40.274Z,100191.00
2019-03-10T23:34:13.137Z,100203.00
2019-03-10T23:36:45.986Z,100198.00
2019-03-10T23:39:18.798Z,100193.00
2019-03-10T23:41:51.655Z,100192.00
2019-03-10T23:44:24.449Z,100185.00
2019-03-10T23:46:57.299Z,100185.00
2019-03-10T23:49:30.947Z,100181.00
2019-03-10T23:52:03.870Z,100174.00
2019-03-10T23:54:36.865Z,100170.00
2019-03-10T23:57:09.737Z,100170.00
2019-03-10T23:59:43.581Z,100169.00
